Terminal Aerodrome Forecast
Issued by NWS Anchorage, AK

Home | Current Version | Previous Version | Text Only | Print | Product List | Glossary On
Versions: 1 2 3 4 5 6 7 8 9 10 11 12 13 14 15 16 17 18 19 20 21 22 23 24 25 26 27 28 29 30 31 32 33
000
FTAK31 PANC 201455 AAC
TAFANC
TAF AMD
PANC 201455Z 2015/2118 VRB05KT P6SM SCT003 SCT010 BKN100
     FM202100 30006KT P6SM SCT060 BKN250
     FM210600 VRB03KT P6SM FEW070 SCT250=

USA.gov is the U.S. government's official web portal to all federal, state and local government web resources and services.